Terminal Aerodrome Forecast
Issued by NWS

Home | Current Version | Previous Version | Text Only | Print | Product List | Glossary On
Versions: 1 2 3 4 5 6 7 8 9 10 11 12 13 14
192
FTUS46 KSEW 252342
TAFCLM
TAF
KCLM 252342Z 2600/2624 31009KT P6SM BKN250
     FM260600 28015KT P6SM FEW015 BKN250
      TEMPO 2606/2610 28015G25KT
     FM261000 28012KT P6SM VCFG BKN008 BKN200
     FM261500 31010KT P6SM BKN015 BKN200
     FM261800 31016KT P6SM FEW022 FEW050 SCT200=

USA.gov is the U.S. government's official web portal to all federal, state and local government web resources and services.